createdAt,value
2023-03-20T00:02:06.871Z,4.97
2023-03-20T00:04:34.078Z,5.85
2023-03-20T00:07:00.732Z,4.88
2023-03-20T00:09:28.292Z,5.35
2023-03-20T00:11:55.583Z,5.70
2023-03-20T00:14:24.573Z,5.60
2023-03-20T00:16:52.876Z,4.50
2023-03-20T00:19:29.251Z,5.10
2023-03-20T00:21:56.010Z,5.10
2023-03-20T00:24:23.586Z,4.80
2023-03-20T00:26:51.791Z,4.65
2023-03-20T00:29:24.378Z,4.30
2023-03-20T00:31:51.754Z,4.72
2023-03-20T00:34:20.796Z,4.53
2023-03-20T00:36:47.346Z,4.43
2023-03-20T00:39:13.946Z,4.32
2023-03-20T00:41:48.268Z,4.32
2023-03-20T00:44:26.563Z,4.10
2023-03-20T00:46:59.733Z,4.22
2023-03-20T00:49:29.098Z,4.40
2023-03-20T00:51:56.275Z,4.40
2023-03-20T00:54:23.298Z,3.88
2023-03-20T00:57:08.368Z,4.20
2023-03-20T00:59:41.777Z,4.30
2023-03-20T01:02:09.792Z,4.00
2023-03-20T01:04:42.104Z,4.60
2023-03-20T01:07:14.249Z,4.22
2023-03-20T01:09:41.591Z,4.43
2023-03-20T01:12:10.443Z,4.35
2023-03-20T01:14:37.195Z,4.53
2023-03-20T01:17:04.192Z,4.88
2023-03-20T01:19:30.795Z,4.35
2023-03-20T01:21:57.434Z,4.45
2023-03-20T01:24:23.985Z,4.28
2023-03-20T01:26:52.630Z,4.53
2023-03-20T01:29:22.419Z,4.50
2023-03-20T01:31:50.368Z,4.90
2023-03-20T01:34:17.060Z,4.65
2023-03-20T01:36:58.746Z,4.68
2023-03-20T01:39:33.480Z,5.00
2023-03-20T01:42:01.321Z,4.47
2023-03-20T01:44:33.074Z,4.90
2023-03-20T01:47:02.547Z,4.88
2023-03-20T01:49:29.027Z,4.88
2023-03-20T01:51:57.509Z,4.68
2023-03-20T01:54:28.298Z,5.00
2023-03-20T01:57:02.943Z,4.80
2023-03-20T01:59:53.119Z,4.65
2023-03-20T02:02:24.858Z,4.82
2023-03-20T02:04:56.992Z,4.90
2023-03-20T02:07:24.380Z,5.15
2023-03-20T02:09:51.754Z,5.05
2023-03-20T02:12:19.679Z,6.15
2023-03-20T02:14:47.382Z,4.90
2023-03-20T02:17:14.755Z,4.80
2023-03-20T02:20:12.337Z,5.38
2023-03-20T02:23:13.034Z,5.10
2023-03-20T02:26:09.984Z,5.68
2023-03-20T02:29:06.482Z,5.72
2023-03-20T02:32:18.391Z,5.35
2023-03-20T02:35:06.819Z,6.28
2023-03-20T02:37:45.847Z,6.57
2023-03-20T02:40:38.205Z,5.25
2023-03-20T02:43:18.849Z,5.78
2023-03-20T02:46:07.604Z,6.00
2023-03-20T02:48:47.481Z,5.55
2023-03-20T02:51:25.981Z,5.72
2023-03-20T02:54:01.336Z,6.63
2023-03-20T02:56:33.984Z,6.43
2023-03-20T02:59:22.076Z,6.60
2023-03-20T03:01:54.734Z,6.47
2023-03-20T03:04:29.452Z,7.10
2023-03-20T03:06:59.136Z,7.43
2023-03-20T03:09:35.476Z,7.45
2023-03-20T03:12:14.297Z,7.90
2023-03-20T03:14:52.234Z,7.32
2023-03-20T03:17:22.953Z,7.80
2023-03-20T03:19:53.128Z,8.65
2023-03-20T03:22:21.172Z,8.00
2023-03-20T03:24:51.263Z,8.82
2023-03-20T03:27:23.011Z,9.15
2023-03-20T03:29:58.001Z,8.55
2023-03-20T03:32:54.940Z,9.35
2023-03-20T03:35:23.432Z,8.88
2023-03-20T03:38:12.107Z,9.40
2023-03-20T03:41:01.608Z,8.63
2023-03-20T03:43:33.364Z,9.50
2023-03-20T03:46:08.000Z,9.20
2023-03-20T03:48:45.258Z,10.15
2023-03-20T03:51:17.248Z,9.60
2023-03-20T03:53:52.293Z,11.10
2023-03-20T03:56:24.364Z,9.50
2023-03-20T03:58:59.635Z,9.60
2023-03-20T04:03:58.167Z,9.23
2023-03-20T04:06:26.346Z,10.00
2023-03-20T04:08:52.966Z,10.10
2023-03-20T04:11:22.460Z,10.13
2023-03-20T04:13:50.943Z,10.38
2023-03-20T04:16:18.975Z,10.48
2023-03-20T04:18:46.138Z,10.68
2023-03-20T04:21:13.468Z,10.88
2023-03-20T04:23:40.356Z,11.43
2023-03-20T04:26:07.323Z,10.85
2023-03-20T04:28:34.384Z,11.65
2023-03-20T04:31:02.309Z,11.80
2023-03-20T04:33:29.576Z,12.20
2023-03-20T04:35:56.676Z,11.88
2023-03-20T04:38:23.891Z,11.77
2023-03-20T04:40:51.045Z,12.65
2023-03-20T04:43:18.061Z,11.77
2023-03-20T04:45:44.971Z,12.35
2023-03-20T04:48:11.809Z,12.52
2023-03-20T04:50:38.395Z,13.30
2023-03-20T04:53:05.630Z,13.82
2023-03-20T04:55:32.314Z,13.27
2023-03-20T04:57:58.895Z,12.75
2023-03-20T05:00:25.723Z,13.60
2023-03-20T05:02:52.276Z,13.98
2023-03-20T05:05:19.056Z,13.57
2023-03-20T05:07:45.986Z,13.75
2023-03-20T05:10:12.611Z,13.77
2023-03-20T05:12:39.296Z,13.30
2023-03-20T05:15:06.334Z,14.57
2023-03-20T05:17:33.050Z,13.27
2023-03-20T05:19:59.964Z,13.93
2023-03-20T05:22:26.797Z,13.88
2023-03-20T05:24:53.624Z,13.02
2023-03-20T05:27:20.237Z,12.98
2023-03-20T05:29:46.884Z,14.65
2023-03-20T05:32:13.641Z,12.75
2023-03-20T05:34:40.388Z,13.85
2023-03-20T05:37:07.002Z,14.13
2023-03-20T05:39:33.648Z,13.80
2023-03-20T05:42:00.535Z,12.70
2023-03-20T05:44:27.143Z,12.23
2023-03-20T05:46:53.766Z,13.02
2023-03-20T05:49:20.599Z,14.63
2023-03-20T05:51:47.245Z,14.07
2023-03-20T05:54:13.961Z,13.60
2023-03-20T05:56:40.778Z,13.05
2023-03-20T05:59:07.495Z,12.60
2023-03-20T06:01:34.032Z,14.23
2023-03-20T06:04:00.808Z,13.00
2023-03-20T06:06:27.557Z,14.40
2023-03-20T06:08:54.203Z,14.18
2023-03-20T06:11:21.094Z,13.45
2023-03-20T06:13:47.796Z,14.68
2023-03-20T06:16:14.523Z,14.80
2023-03-20T06:18:41.290Z,15.15
2023-03-20T06:21:08.093Z,15.05
2023-03-20T06:23:34.703Z,14.57
2023-03-20T06:26:01.243Z,16.70
2023-03-20T06:28:27.828Z,17.50
2023-03-20T06:30:54.477Z,16.55
2023-03-20T06:33:21.879Z,17.45
2023-03-20T06:35:49.162Z,17.13
2023-03-20T06:38:16.571Z,19.38
2023-03-20T06:40:45.018Z,19.05
2023-03-20T06:43:12.431Z,17.73
2023-03-20T06:45:39.517Z,17.50
2023-03-20T06:48:09.967Z,18.20
2023-03-20T06:50:37.178Z,19.42
2023-03-20T06:53:04.098Z,18.27
2023-03-20T06:55:31.148Z,19.88
2023-03-20T06:57:57.896Z,18.83
2023-03-20T07:00:24.887Z,19.67
2023-03-20T07:02:51.635Z,17.48
2023-03-20T07:05:18.282Z,18.75
2023-03-20T07:07:44.851Z,18.67
2023-03-20T07:10:12.462Z,18.05
2023-03-20T07:12:39.925Z,18.25
2023-03-20T07:15:06.997Z,19.25
2023-03-20T07:17:33.632Z,19.05
2023-03-20T07:20:00.570Z,19.15
2023-03-20T07:22:28.995Z,19.23
2023-03-20T07:24:55.663Z,19.95
2023-03-20T07:27:22.381Z,19.73
2023-03-20T07:29:49.146Z,20.67
2023-03-20T07:32:16.663Z,21.25
2023-03-20T07:34:43.680Z,19.48
2023-03-20T07:37:10.329Z,20.70
2023-03-20T07:39:36.889Z,20.40
2023-03-20T07:42:03.553Z,19.42
2023-03-20T07:44:30.438Z,21.25
2023-03-20T07:46:56.971Z,21.98
2023-03-20T07:49:23.702Z,20.90
2023-03-20T07:51:50.888Z,21.92
2023-03-20T07:54:17.667Z,22.63
2023-03-20T07:56:44.413Z,22.55
2023-03-20T07:59:11.777Z,22.48
2023-03-20T08:01:38.371Z,22.70
2023-03-20T08:04:05.304Z,23.98
2023-03-20T08:06:32.065Z,24.38
2023-03-20T08:08:59.049Z,24.52
2023-03-20T08:11:25.655Z,24.75
2023-03-20T08:13:52.278Z,23.33
2023-03-20T08:16:18.890Z,22.75
2023-03-20T08:18:45.505Z,24.17
2023-03-20T08:21:13.079Z,24.80
2023-03-20T08:23:39.780Z,23.50
2023-03-20T08:26:07.016Z,25.60
2023-03-20T08:28:46.689Z,23.88
2023-03-20T08:31:15.535Z,24.42
2023-03-20T08:33:42.157Z,23.92
2023-03-20T08:36:09.181Z,23.05
2023-03-20T08:38:36.151Z,24.63
2023-03-20T08:41:03.017Z,23.27
2023-03-20T08:43:29.925Z,23.45
2023-03-20T08:45:56.540Z,22.77
2023-03-20T08:48:23.421Z,24.65
2023-03-20T08:50:50.335Z,25.30
2023-03-20T08:53:16.923Z,27.10
2023-03-20T08:55:51.535Z,27.08
2023-03-20T08:58:19.265Z,25.83
2023-03-20T09:00:45.945Z,27.20
2023-03-20T09:03:17.364Z,28.00
2023-03-20T09:05:48.682Z,25.80
2023-03-20T09:08:15.760Z,27.60
2023-03-20T09:10:42.426Z,26.38
2023-03-20T09:13:25.862Z,26.20
2023-03-20T09:15:54.796Z,26.65
2023-03-20T09:18:21.694Z,26.30
2023-03-20T09:20:49.034Z,28.15
2023-03-20T09:23:15.773Z,25.48
2023-03-20T09:25:42.305Z,26.65
2023-03-20T09:28:09.196Z,26.92
2023-03-20T09:30:36.180Z,29.52
2023-03-20T09:33:02.901Z,27.27
2023-03-20T09:35:29.575Z,28.95
2023-03-20T09:37:56.615Z,29.63
2023-03-20T09:40:36.073Z,30.65
2023-03-20T09:43:08.517Z,29.58
2023-03-20T09:45:52.928Z,27.45
2023-03-20T09:48:24.853Z,28.88
2023-03-20T09:51:12.470Z,29.70
2023-03-20T09:53:47.395Z,27.50
2023-03-20T09:56:19.583Z,30.40
2023-03-20T09:58:52.521Z,30.38
2023-03-20T10:01:20.931Z,31.02
2023-03-20T10:03:53.085Z,30.23
2023-03-20T10:06:19.712Z,30.92
2023-03-20T10:08:46.711Z,31.92
2023-03-20T10:11:35.214Z,28.92
2023-03-20T10:14:16.303Z,30.83
2023-03-20T10:17:07.618Z,29.38
2023-03-20T10:19:45.480Z,28.77
2023-03-20T10:22:18.220Z,28.38
2023-03-20T10:25:20.724Z,28.17
2023-03-20T10:28:01.129Z,28.00
2023-03-20T10:30:30.586Z,26.25
2023-03-20T10:33:09.711Z,26.35
2023-03-20T10:35:45.641Z,25.95
2023-03-20T10:38:37.210Z,24.77
2023-03-20T10:41:09.501Z,22.73
2023-03-20T10:43:40.591Z,23.75
2023-03-20T10:46:26.160Z,20.58
2023-03-20T10:49:02.998Z,19.75
2023-03-20T10:51:46.303Z,19.88
2023-03-20T10:54:24.876Z,18.45
2023-03-20T10:56:55.789Z,17.75
2023-03-20T10:59:29.463Z,18.17
2023-03-20T11:01:56.480Z,18.85
2023-03-20T11:04:23.208Z,18.88
2023-03-20T11:07:16.749Z,16.67
2023-03-20T11:09:43.420Z,16.05
2023-03-20T11:12:19.226Z,16.73
2023-03-20T11:14:46.131Z,14.60
2023-03-20T11:17:12.860Z,15.80
2023-03-20T11:19:41.432Z,16.08
2023-03-20T11:22:23.124Z,15.25
2023-03-20T11:25:01.284Z,15.52
2023-03-20T11:27:35.783Z,12.35
2023-03-20T11:30:05.946Z,12.05
2023-03-20T11:32:47.248Z,11.20
2023-03-20T11:35:27.390Z,11.95
2023-03-20T11:38:06.453Z,12.77
2023-03-20T11:40:33.951Z,11.73
2023-03-20T11:43:00.554Z,11.25
2023-03-20T11:45:45.486Z,12.50
2023-03-20T11:48:39.784Z,12.18
2023-03-20T11:51:08.163Z,10.93
2023-03-20T11:53:59.889Z,10.45
2023-03-20T11:56:28.833Z,10.40
2023-03-20T11:59:03.598Z,9.77
2023-03-20T12:01:44.653Z,9.88
2023-03-20T12:04:19.011Z,9.70
2023-03-20T12:07:27.182Z,9.40
2023-03-20T12:10:07.044Z,10.15
2023-03-20T12:12:41.043Z,9.50
2023-03-20T12:15:26.656Z,10.00
2023-03-20T12:18:02.524Z,9.00
2023-03-20T12:20:46.464Z,8.68
2023-03-20T12:23:21.420Z,8.38
2023-03-20T12:26:07.060Z,9.30
2023-03-20T12:28:38.326Z,9.35
2023-03-20T12:31:11.307Z,8.88
2023-03-20T12:33:43.792Z,8.52
2023-03-20T12:36:18.820Z,8.95
2023-03-20T12:38:48.151Z,8.48
2023-03-20T12:41:38.976Z,8.23
2023-03-20T12:44:36.218Z,7.57
2023-03-20T12:47:02.948Z,8.32
2023-03-20T12:49:34.162Z,7.82
2023-03-20T12:52:39.222Z,8.63
2023-03-20T12:55:20.651Z,7.65
2023-03-20T12:58:33.130Z,8.20
2023-03-20T13:01:07.449Z,8.55
2023-03-20T13:03:59.612Z,8.57
2023-03-20T13:06:53.946Z,9.02
2023-03-20T13:09:48.666Z,8.13
2023-03-20T13:12:31.544Z,8.80
2023-03-20T13:15:36.863Z,8.50
2023-03-20T13:18:18.938Z,7.40
2023-03-20T13:20:55.230Z,7.20
2023-03-20T13:23:27.230Z,8.00
2023-03-20T13:26:22.253Z,8.13
2023-03-20T13:29:12.612Z,8.32
2023-03-20T13:31:55.781Z,7.28
2023-03-20T13:34:37.753Z,6.95
2023-03-20T13:37:24.368Z,7.20
2023-03-20T13:40:04.418Z,6.10
2023-03-20T13:42:55.580Z,5.43
2023-03-20T13:45:32.007Z,5.65
2023-03-20T13:48:12.538Z,5.68
2023-03-20T13:51:02.046Z,5.15
2023-03-20T13:53:33.187Z,5.03
2023-03-20T13:56:32.056Z,4.63
2023-03-20T13:59:19.370Z,4.10
2023-03-20T14:01:56.770Z,4.20
2023-03-20T14:04:24.712Z,4.22
2023-03-20T14:06:56.736Z,4.13
2023-03-20T14:09:34.833Z,3.45
2023-03-20T14:12:02.596Z,3.00
2023-03-20T14:14:40.759Z,2.90
2023-03-20T14:17:09.709Z,2.97
2023-03-20T14:19:38.335Z,2.53
2023-03-20T14:22:06.691Z,2.90
2023-03-20T14:24:37.400Z,2.97
2023-03-20T14:27:05.423Z,3.03
2023-03-20T14:29:36.592Z,2.70
2023-03-20T14:32:15.635Z,2.78
2023-03-20T14:34:48.435Z,2.17
2023-03-20T14:37:32.802Z,2.42
2023-03-20T14:40:05.530Z,2.75
2023-03-20T14:42:50.216Z,3.15
2023-03-20T14:45:31.987Z,3.22
2023-03-20T14:48:07.540Z,2.83
2023-03-20T14:50:45.701Z,2.83
2023-03-20T14:53:26.354Z,2.40
2023-03-20T14:56:03.920Z,2.60
2023-03-20T14:58:53.545Z,2.60
2023-03-20T15:01:22.963Z,2.80
2023-03-20T15:04:01.328Z,3.33
2023-03-20T15:06:29.528Z,3.08
2023-03-20T15:08:59.828Z,3.40
2023-03-20T15:11:27.056Z,3.20
2023-03-20T15:13:55.437Z,3.47
2023-03-20T15:16:30.340Z,3.58
2023-03-20T15:18:57.429Z,4.10
2023-03-20T15:21:32.623Z,3.30
2023-03-20T15:26:27.597Z,3.80
2023-03-20T15:29:11.762Z,3.65
2023-03-20T15:31:39.362Z,3.45
2023-03-20T15:34:11.495Z,4.13
2023-03-20T15:36:40.502Z,3.80
2023-03-20T15:39:13.483Z,3.47
2023-03-20T15:41:40.063Z,3.70
2023-03-20T15:44:25.546Z,4.25
2023-03-20T15:47:02.666Z,4.25
2023-03-20T15:49:32.046Z,3.58
2023-03-20T15:52:03.350Z,3.78
2023-03-20T15:54:30.368Z,3.72
2023-03-20T15:57:00.641Z,4.25
2023-03-20T15:59:31.635Z,4.40
2023-03-20T16:02:00.342Z,4.28
2023-03-20T16:04:27.907Z,4.00
2023-03-20T16:06:59.115Z,3.30
2023-03-20T16:09:26.702Z,2.80
2023-03-20T16:12:01.664Z,2.78
2023-03-20T16:14:33.525Z,2.65
2023-03-20T16:17:02.611Z,2.72
2023-03-20T16:19:29.651Z,3.85
2023-03-20T16:22:21.754Z,2.70
2023-03-20T16:24:51.798Z,3.20
2023-03-20T16:27:30.611Z,7.03
2023-03-20T16:29:57.957Z,3.50
2023-03-20T16:32:27.949Z,2.50
2023-03-20T16:34:57.851Z,2.80
2023-03-20T16:37:37.612Z,2.97
2023-03-20T16:40:35.879Z,2.70
2023-03-20T16:43:18.583Z,2.90
2023-03-20T16:45:52.447Z,5.78
2023-03-20T16:48:25.306Z,3.00
2023-03-20T16:50:59.309Z,2.40
2023-03-20T16:53:31.179Z,3.28
2023-03-20T16:55:59.091Z,2.97
2023-03-20T16:58:29.399Z,3.00
2023-03-20T17:01:04.924Z,2.40
2023-03-20T17:03:39.987Z,3.08
2023-03-20T17:06:21.643Z,2.83
2023-03-20T17:08:54.429Z,2.35
2023-03-20T17:11:30.947Z,2.30
2023-03-20T17:13:57.459Z,2.20
2023-03-20T17:16:25.499Z,1.92
2023-03-20T17:19:31.867Z,2.40
2023-03-20T17:22:03.361Z,2.00
2023-03-20T17:24:29.952Z,2.28
2023-03-20T17:26:57.455Z,2.08
2023-03-20T17:29:24.083Z,2.80
2023-03-20T17:31:50.726Z,3.03
2023-03-20T17:34:17.318Z,5.20
2023-03-20T17:36:43.979Z,4.80
2023-03-20T17:39:18.757Z,3.65
2023-03-20T17:41:46.425Z,5.63
2023-03-20T17:44:13.301Z,2.45
2023-03-20T17:46:56.247Z,2.47
2023-03-20T17:49:27.035Z,3.08
2023-03-20T17:51:54.492Z,2.30
2023-03-20T17:54:21.425Z,2.70
2023-03-20T17:56:48.071Z,9.23
2023-03-20T17:59:15.130Z,12.80
2023-03-20T18:01:42.608Z,6.90
2023-03-20T18:04:09.436Z,5.47
2023-03-20T18:06:36.846Z,2.97
2023-03-20T18:09:04.370Z,3.13
2023-03-20T18:11:31.052Z,3.20
2023-03-20T18:13:57.639Z,2.95
2023-03-20T18:16:26.277Z,3.00
2023-03-20T18:18:54.213Z,3.08
2023-03-20T18:21:20.893Z,4.07
2023-03-20T18:23:47.776Z,3.20
2023-03-20T18:26:23.491Z,3.50
2023-03-20T18:28:51.689Z,4.43
2023-03-20T18:31:19.028Z,2.97
2023-03-20T18:33:50.600Z,3.30
2023-03-20T18:36:19.453Z,2.70
2023-03-20T18:38:46.399Z,2.90
2023-03-20T18:41:13.305Z,3.10
2023-03-20T18:43:41.102Z,2.58
2023-03-20T18:46:13.182Z,2.92
2023-03-20T18:48:39.776Z,2.35
2023-03-20T18:51:06.592Z,3.30
2023-03-20T18:53:33.261Z,2.97
2023-03-20T18:56:00.648Z,2.60
2023-03-20T18:58:30.439Z,2.88
2023-03-20T19:00:59.551Z,2.80
2023-03-20T19:03:28.344Z,2.50
2023-03-20T19:05:57.606Z,2.50
2023-03-20T19:08:24.760Z,2.78
2023-03-20T19:10:51.599Z,4.93
2023-03-20T19:13:20.496Z,2.42
2023-03-20T19:15:47.145Z,3.00
2023-03-20T19:18:20.137Z,3.00
2023-03-20T19:20:51.871Z,2.80
2023-03-20T19:23:20.166Z,3.05
2023-03-20T19:25:49.207Z,2.90
2023-03-20T19:28:38.747Z,3.33
2023-03-20T19:31:07.784Z,3.05
2023-03-20T19:33:34.461Z,3.35
2023-03-20T19:36:03.719Z,2.92
2023-03-20T19:38:31.217Z,3.10
2023-03-20T19:40:59.272Z,2.60
2023-03-20T19:43:25.883Z,3.08
2023-03-20T19:45:58.001Z,3.30
2023-03-20T19:48:43.256Z,3.10
2023-03-20T19:51:19.097Z,3.03
2023-03-20T19:53:46.327Z,3.20
2023-03-20T19:56:14.596Z,3.70
2023-03-20T19:58:41.226Z,3.45
2023-03-20T20:01:15.010Z,3.15
2023-03-20T20:03:42.485Z,3.43
2023-03-20T20:06:09.800Z,3.25
2023-03-20T20:08:49.094Z,3.30
2023-03-20T20:11:20.470Z,3.00
2023-03-20T20:14:05.235Z,2.58
2023-03-20T20:16:39.290Z,2.42
2023-03-20T20:19:06.234Z,2.53
2023-03-20T20:24:20.148Z,2.10
2023-03-20T20:27:03.496Z,2.45
2023-03-20T20:29:40.913Z,2.80
2023-03-20T20:32:07.584Z,2.70
2023-03-20T20:38:21.212Z,2.42
2023-03-20T20:40:10.601Z,3.08
2023-03-20T20:42:37.571Z,2.80
2023-03-20T20:45:06.228Z,2.70
2023-03-20T20:47:32.906Z,2.50
2023-03-20T20:50:01.687Z,2.47
2023-03-20T20:52:28.409Z,2.80
2023-03-20T20:54:54.931Z,2.60
2023-03-20T20:57:21.591Z,2.60
2023-03-20T20:59:48.157Z,2.60
2023-03-20T21:02:17.205Z,2.53
2023-03-20T21:04:44.139Z,2.72
2023-03-20T21:07:12.319Z,3.00
2023-03-20T21:09:40.456Z,3.08
2023-03-20T21:12:08.525Z,2.80
2023-03-20T21:14:35.684Z,2.90
2023-03-20T21:17:02.928Z,2.90
2023-03-20T21:19:32.794Z,2.58
2023-03-20T21:21:59.339Z,3.00
2023-03-20T21:24:32.811Z,3.00
2023-03-20T21:27:01.430Z,2.70
2023-03-20T21:29:28.043Z,2.72
2023-03-20T21:31:54.835Z,2.80
2023-03-20T21:34:21.771Z,2.58
2023-03-20T21:36:49.145Z,2.97
2023-03-20T21:39:17.340Z,2.60
2023-03-20T21:41:44.783Z,2.70
2023-03-20T21:44:17.067Z,2.80
2023-03-20T22:04:00.579Z,3.05
2023-03-20T22:10:05.786Z,2.83
2023-03-20T22:12:35.575Z,2.63
2023-03-20T22:15:29.052Z,3.00
2023-03-20T22:23:47.972Z,3.03
2023-03-20T22:26:48.570Z,2.97
2023-03-20T22:29:28.594Z,2.88
2023-03-20T22:32:02.397Z,2.72
2023-03-20T22:42:53.701Z,2.60
2023-03-20T22:45:19.390Z,2.53
2023-03-20T22:47:46.410Z,2.72
2023-03-20T22:50:12.996Z,2.22
2023-03-20T22:52:48.499Z,2.95
2023-03-20T22:55:19.899Z,2.50
2023-03-20T22:57:59.857Z,2.63
2023-03-20T23:00:33.272Z,2.67
2023-03-20T23:03:15.376Z,2.10
2023-03-20T23:05:47.151Z,2.70
2023-03-20T23:08:13.996Z,2.55
2023-03-20T23:10:45.740Z,1.95
2023-03-20T23:13:12.987Z,2.25
2023-03-20T23:15:39.820Z,2.50
2023-03-20T23:18:06.552Z,2.65
2023-03-20T23:20:33.517Z,2.38
2023-03-20T23:23:00.142Z,2.50
2023-03-20T23:25:39.816Z,2.65
2023-03-20T23:28:08.976Z,2.38
2023-03-20T23:30:49.885Z,2.50
2023-03-20T23:33:23.171Z,2.28
2023-03-20T23:36:01.275Z,2.20
2023-03-20T23:38:31.972Z,1.95
2023-03-20T23:40:58.514Z,2.70
2023-03-20T23:43:25.556Z,2.40
2023-03-20T23:45:52.255Z,2.60
2023-03-20T23:48:19.262Z,2.33
2023-03-20T23:50:52.864Z,2.47
2023-03-20T23:53:21.195Z,2.53
2023-03-20T23:55:50.104Z,2.45
2023-03-20T23:58:17.020Z,2.60
